Maersk_kyrenia — VRGM8 — position and weather

sailwx.info

Track history (hours):
 
Tides and Currents Weather Stations Pressure Air Temp Water Temp Dewpoint Dewpoint Depression Visibility Wind Speed Wind Dir Waves Ship Positions

Maersk_kyrenia

Last reported at 2017-May-23 23:00 UTC. Time now 2017-May-24 13:45 UTC.
Position N 42°12' E 031°18'.

Length 300 m; draft 8.1 m.

Type: Cargo ship. MMSI: 477733600.

Wind from 340 at 8 knots

Barometer 1019.2 mb
Air temperature 15.4 ° C
Visibility: greater than 10.8 NM
Dewpoint 11.3 ° C
Water temperature 16.3 ° C

Date/timePositionNaut miles runAvg speedWind from/ knotsBaromVisibWave heightAir tempDewpointWater temp
2017-May-23 23:00N 42°12' E 031°18'32116.5 340 / 81019.210.8 15.411.316.3
2017-May-23 03:33N 44°44' E 037°47'0 0.1
2017-May-23 03:30N 44°44' E 037°47'0 0.0
2017-May-23 03:00N 44°44' E 037°47'0 0.0
2017-May-23 02:30N 44°44' E 037°47'0 0.0
2017-May-23 02:00N 44°44' E 037°47'0 0.0
2017-May-23 01:29N 44°44' E 037°47'0 0.0
2017-May-23 00:59N 44°44' E 037°47'0 0.0
2017-May-23 00:26N 44°44' E 037°47'0 0.0
2017-May-22 23:59N 44°44' E 037°47'0 0.0
2017-May-22 23:29N 44°44' E 037°47'0 0.0
2017-May-22 22:59N 44°44' E 037°47'0 0.0
2017-May-22 22:29N 44°44' E 037°47'0 0.0
2017-May-22 21:59N 44°44' E 037°47'0 0.0
2017-May-22 21:26N 44°44' E 037°47'0 0.0
2017-May-22 20:59N 44°44' E 037°47'0 0.0
2017-May-22 20:29N 44°44' E 037°47'0 0.0
2017-May-22 19:59N 44°44' E 037°47'0 0.0
2017-May-22 19:29N 44°44' E 037°47'0 0.0
2017-May-22 18:59N 44°44' E 037°47'0 0.0
2017-May-22 18:29N 44°44' E 037°47'0 0.0
2017-May-22 17:59N 44°44' E 037°47'0 0.0
2017-May-22 17:29N 44°44' E 037°47'0 0.0
2017-May-22 16:59N 44°44' E 037°47'0 0.0
2017-May-22 16:26N 44°44' E 037°47'0 0.0
2017-May-22 15:59N 44°44' E 037°47'0 0.0
2017-May-22 15:29N 44°44' E 037°47'0 0.0
2017-May-22 14:59N 44°44' E 037°47'0 0.0
2017-May-22 13:59N 44°44' E 037°47'0 0.0
2017-May-22 13:29N 44°44' E 037°47'0 0.0
2017-May-22 12:59N 44°44' E 037°47'0 0.0
2017-May-22 12:29N 44°44' E 037°47'0 0.0
2017-May-22 11:59N 44°44' E 037°47'0 0.0
2017-May-22 11:29N 44°44' E 037°47'0 0.0
2017-May-22 10:59N 44°44' E 037°47'0 0.0
2017-May-22 10:29N 44°44' E 037°47'0 0.0
2017-May-22 09:59N 44°44' E 037°47'0 0.0
2017-May-22 09:29N 44°44' E 037°47'0 0.0
2017-May-22 08:59N 44°44' E 037°47'0 0.0
2017-May-22 08:23N 44°44' E 037°47'0 0.0
2017-May-22 07:59N 44°44' E 037°47'0 0.0
2017-May-22 07:29N 44°44' E 037°47'0 0.0
2017-May-22 06:56N 44°44' E 037°47'0 0.0
2017-May-22 06:29N 44°44' E 037°47'0 0.0
2017-May-22 05:59N 44°44' E 037°47'0 0.0
2017-May-22 05:29N 44°44' E 037°47'0 0.0
2017-May-22 04:56N 44°44' E 037°47'0 0.0
2017-May-22 04:29N 44°44' E 037°47'0 0.0
2017-May-22 03:59N 44°44' E 037°47'0 0.0
2017-May-22 03:29N 44°44' E 037°47'0 0.0
2017-May-22 02:59N 44°44' E 037°47'0 0.0
2017-May-22 02:29N 44°44' E 037°47'0 0.0
2017-May-22 01:59N 44°44' E 037°47'0 0.0
2017-May-22 01:29N 44°44' E 037°47'0 0.0
2017-May-22 00:59N 44°44' E 037°47'0 0.0
2017-May-22 00:29N 44°44' E 037°47'0 0.0
2017-May-21 23:59N 44°44' E 037°47'0 0.0
2017-May-21 23:29N 44°44' E 037°47'0 0.0
2017-May-21 22:59N 44°44' E 037°47'0 0.0
2017-May-21 22:29N 44°44' E 037°47'0 0.0
2017-May-21 21:59N 44°44' E 037°47'0 0.0
2017-May-21 21:29N 44°44' E 037°47'0 0.0
2017-May-21 20:59N 44°44' E 037°47'0 0.0
2017-May-21 20:29N 44°44' E 037°47'0 0.0
2017-May-21 19:59N 44°44' E 037°47'0 0.0
2017-May-21 19:29N 44°44' E 037°47'0 0.0
2017-May-21 18:59N 44°44' E 037°47'0 0.2
2017-May-21 18:30N 44°44' E 037°47'1 1.7
2017-May-21 18:00N 44°43' E 037°48'3 6.7
2017-May-21 17:30N 44°40' E 037°50'3 6.5
2017-May-21 17:00N 44°37' E 037°52'3 5.5
2017-May-21 16:30N 44°34' E 037°51'4 8.5
2017-May-21 16:00N 44°31' E 037°48'5 9.6
2017-May-21 15:29N 44°29' E 037°41'5 9.6
2017-May-21 15:00N 44°27' E 037°36'3 6.8
2017-May-21 14:30N 44°25' E 037°32'1 1.4
2017-May-21 13:29N 44°24' E 037°32'0 0.8
2017-May-21 12:59N 44°24' E 037°32'3 5.9
2017-May-21 12:30N 44°26' E 037°31'2 3.2
2017-May-21 11:56N 44°28' E 037°30'1 1.3
2017-May-21 11:30N 44°28' E 037°30'1 1.3
2017-May-21 11:00N 44°27' E 037°31'1 1.2
2017-May-21 10:30N 44°27' E 037°31'1 1.1
2017-May-21 10:00N 44°26' E 037°31'1 1.1
2017-May-21 09:30N 44°25' E 037°32'1 1.3
2017-May-21 08:59N 44°25' E 037°32'1 1.2
2017-May-21 08:30N 44°24' E 037°32'1 1.2
2017-May-21 08:00N 44°24' E 037°32'2 4.0
2017-May-21 07:27N 44°23' E 037°29'3 6.8
2017-May-21 07:00N 44°21' E 037°25'3 6.0
2017-May-21 06:29N 44°20' E 037°21'0 0.7
2017-May-21 05:58N 44°19' E 037°22'0 0.7
2017-May-21 05:26N 44°19' E 037°22'0 0.6
2017-May-21 04:56N 44°19' E 037°22'0 0.5
2017-May-21 04:30N 44°18' E 037°22'0 0.4
2017-May-21 03:59N 44°18' E 037°22'0 0.3
2017-May-21 03:29N 44°18' E 037°22'0 0.2
2017-May-21 02:56N 44°18' E 037°22'6 4.5
2017-May-21 01:39N 44°24' E 037°23'1 6.9
2017-May-21 01:28N 44°24' E 037°25'3 4.9
2017-May-21 00:57N 44°25' E 037°28'0 0.9
2017-May-21 00:30N 44°25' E 037°28'1 1.0
2017-May-20 23:59N 44°24' E 037°28'1 1.0
2017-May-20 23:30N 44°24' E 037°27'1 1.0
2017-May-20 23:00N 44°23' E 037°27'0 0.9
2017-May-20 22:29N 44°23' E 037°27'1 0.9
2017-May-20 21:53N 44°23' E 037°26'0 0.9
2017-May-20 21:30N 44°22' E 037°26'1 0.9
2017-May-20 20:40N 44°22' E 037°25'2 0.6
2017-May-20 18:16N 44°21' E 037°27'0 1.4
2017-May-20 17:59N 44°21' E 037°27'2 4.0
2017-May-20 17:30N 44°23' E 037°29'3 6.1
2017-May-20 16:58N 44°24' E 037°33'0 1.1
2017-May-20 16:30N 44°24' E 037°32'1 1.0
2017-May-20 16:00N 44°24' E 037°32'1 1.0
2017-May-20 15:29N 44°23' E 037°31'1 1.1
2017-May-20 14:59N 44°23' E 037°30'1 1.1
2017-May-20 14:29N 44°23' E 037°30'2 1.9
2017-May-20 13:29N 44°22' E 037°28'6 7.2
2017-May-20 12:41N 44°18' E 037°21'2 7.3
2017-May-20 12:27N 44°17' E 037°20'6 1.1
2017-May-20 06:46N 44°12' E 037°15'0 0.9
2017-May-20 06:22N 44°12' E 037°15'0 0.3
2017-May-20 05:49N 44°12' E 037°15'7 0.7
2017-May-19 19:48N 44°16' E 037°22'0 0.0
2017-May-19 19:18N 44°16' E 037°22'3447.3
2017-May-19 18:35N 44°36' E 038°01'3123.2
2017-May-19 17:15N 44°18' E 037°25'0 1.5
2017-May-19 16:59N 44°18' E 037°26'1 1.5
2017-May-19 16:30N 44°19' E 037°26'1 1.4
2017-May-19 16:00N 44°19' E 037°27'1 1.2
2017-May-19 15:28N 44°20' E 037°28'0 0.9
2017-May-19 15:00N 44°20' E 037°28'1 0.8
2017-May-19 13:57N 44°21' E 037°29'0 0.1
2017-May-19 13:21N 44°20' E 037°29'2 4.8
2017-May-19 12:56N 44°19' E 037°30'0 0.8
2017-May-19 12:29N 44°19' E 037°30'1 1.4
2017-May-19 11:58N 44°20' E 037°30'1 1.2
2017-May-19 11:30N 44°20' E 037°30'1 1.0
2017-May-19 10:54N 44°21' E 037°30'0 1.0
2017-May-19 10:30N 44°21' E 037°30'2640.7
2017-May-19 09:52N 44°36' E 038°01'2545.9
2017-May-19 09:19N 44°22' E 037°31'1 1.3
2017-May-19 08:49N 44°23' E 037°31'1 1.4
2017-May-19 07:59N 44°24' E 037°32'2 4.4
2017-May-19 07:30N 44°25' E 037°34'4 8.6
2017-May-19 07:00N 44°29' E 037°38'4 7.1
2017-May-19 06:30N 44°26' E 037°35'713.4
2017-May-19 06:00N 44°23' E 037°26'713.5
2017-May-19 05:28N 44°19' E 037°18'  
2017-May-15 02:57N 37°45' E 025°44'1418.5
2017-May-15 02:13N 37°32' E 025°49'418.7
2017-May-15 02:00N 37°28' E 025°52'  
Track history (hours):
 
Tides and Currents Weather Stations Pressure Air Temp Water Temp Dewpoint Dewpoint Depression Visibility Wind Speed Wind Dir Waves Ship Positions

Maersk_kyrenia

Last reported at 2017-May-23 23:00 UTC. Time now 2017-May-24 13:45 UTC.
Position N 42°12' E 031°18'.

Length 300 m; draft 8.1 m.

Type: Cargo ship. MMSI: 477733600.

Wind from 340 at 8 knots

Barometer 1019.2 mb
Air temperature 15.4 ° C
Visibility: greater than 10.8 NM
Dewpoint 11.3 ° C
Water temperature 16.3 ° C

Date/timePositionNaut miles runAvg speedWind from/ knotsBaromVisibWave heightAir tempDewpointWater temp
2017-May-23 23:00N 42°12' E 031°18'32116.5 340 / 81019.210.8 15.411.316.3
2017-May-23 03:33N 44°44' E 037°47'0 0.1
2017-May-23 03:30N 44°44' E 037°47'0 0.0
2017-May-23 03:00N 44°44' E 037°47'0 0.0
2017-May-23 02:30N 44°44' E 037°47'0 0.0
2017-May-23 02:00N 44°44' E 037°47'0 0.0
2017-May-23 01:29N 44°44' E 037°47'0 0.0
2017-May-23 00:59N 44°44' E 037°47'0 0.0
2017-May-23 00:26N 44°44' E 037°47'0 0.0
2017-May-22 23:59N 44°44' E 037°47'0 0.0
2017-May-22 23:29N 44°44' E 037°47'0 0.0
2017-May-22 22:59N 44°44' E 037°47'0 0.0
2017-May-22 22:29N 44°44' E 037°47'0 0.0
2017-May-22 21:59N 44°44' E 037°47'0 0.0
2017-May-22 21:26N 44°44' E 037°47'0 0.0
2017-May-22 20:59N 44°44' E 037°47'0 0.0
2017-May-22 20:29N 44°44' E 037°47'0 0.0
2017-May-22 19:59N 44°44' E 037°47'0 0.0
2017-May-22 19:29N 44°44' E 037°47'0 0.0
2017-May-22 18:59N 44°44' E 037°47'0 0.0
2017-May-22 18:29N 44°44' E 037°47'0 0.0
2017-May-22 17:59N 44°44' E 037°47'0 0.0
2017-May-22 17:29N 44°44' E 037°47'0 0.0
2017-May-22 16:59N 44°44' E 037°47'0 0.0
2017-May-22 16:26N 44°44' E 037°47'0 0.0
2017-May-22 15:59N 44°44' E 037°47'0 0.0
2017-May-22 15:29N 44°44' E 037°47'0 0.0
2017-May-22 14:59N 44°44' E 037°47'0 0.0
2017-May-22 13:59N 44°44' E 037°47'0 0.0
2017-May-22 13:29N 44°44' E 037°47'0 0.0
2017-May-22 12:59N 44°44' E 037°47'0 0.0
2017-May-22 12:29N 44°44' E 037°47'0 0.0
2017-May-22 11:59N 44°44' E 037°47'0 0.0
2017-May-22 11:29N 44°44' E 037°47'0 0.0
2017-May-22 10:59N 44°44' E 037°47'0 0.0
2017-May-22 10:29N 44°44' E 037°47'0 0.0
2017-May-22 09:59N 44°44' E 037°47'0 0.0
2017-May-22 09:29N 44°44' E 037°47'0 0.0
2017-May-22 08:59N 44°44' E 037°47'0 0.0
2017-May-22 08:23N 44°44' E 037°47'0 0.0
2017-May-22 07:59N 44°44' E 037°47'0 0.0
2017-May-22 07:29N 44°44' E 037°47'0 0.0
2017-May-22 06:56N 44°44' E 037°47'0 0.0
2017-May-22 06:29N 44°44' E 037°47'0 0.0
2017-May-22 05:59N 44°44' E 037°47'0 0.0
2017-May-22 05:29N 44°44' E 037°47'0 0.0
2017-May-22 04:56N 44°44' E 037°47'0 0.0
2017-May-22 04:29N 44°44' E 037°47'0 0.0
2017-May-22 03:59N 44°44' E 037°47'0 0.0
2017-May-22 03:29N 44°44' E 037°47'0 0.0
2017-May-22 02:59N 44°44' E 037°47'0 0.0
2017-May-22 02:29N 44°44' E 037°47'0 0.0
2017-May-22 01:59N 44°44' E 037°47'0 0.0
2017-May-22 01:29N 44°44' E 037°47'0 0.0
2017-May-22 00:59N 44°44' E 037°47'0 0.0
2017-May-22 00:29N 44°44' E 037°47'0 0.0
2017-May-21 23:59N 44°44' E 037°47'0 0.0
2017-May-21 23:29N 44°44' E 037°47'0 0.0
2017-May-21 22:59N 44°44' E 037°47'0 0.0
2017-May-21 22:29N 44°44' E 037°47'0 0.0
2017-May-21 21:59N 44°44' E 037°47'0 0.0
2017-May-21 21:29N 44°44' E 037°47'0 0.0
2017-May-21 20:59N 44°44' E 037°47'0 0.0
2017-May-21 20:29N 44°44' E 037°47'0 0.0
2017-May-21 19:59N 44°44' E 037°47'0 0.0
2017-May-21 19:29N 44°44' E 037°47'0 0.0
2017-May-21 18:59N 44°44' E 037°47'0 0.2
2017-May-21 18:30N 44°44' E 037°47'1 1.7
2017-May-21 18:00N 44°43' E 037°48'3 6.7
2017-May-21 17:30N 44°40' E 037°50'3 6.5
2017-May-21 17:00N 44°37' E 037°52'3 5.5
2017-May-21 16:30N 44°34' E 037°51'4 8.5
2017-May-21 16:00N 44°31' E 037°48'5 9.6
2017-May-21 15:29N 44°29' E 037°41'5 9.6
2017-May-21 15:00N 44°27' E 037°36'3 6.8
2017-May-21 14:30N 44°25' E 037°32'1 1.4
2017-May-21 13:29N 44°24' E 037°32'0 0.8
2017-May-21 12:59N 44°24' E 037°32'3 5.9
2017-May-21 12:30N 44°26' E 037°31'2 3.2
2017-May-21 11:56N 44°28' E 037°30'1 1.3
2017-May-21 11:30N 44°28' E 037°30'1 1.3
2017-May-21 11:00N 44°27' E 037°31'1 1.2
2017-May-21 10:30N 44°27' E 037°31'1 1.1
2017-May-21 10:00N 44°26' E 037°31'1 1.1
2017-May-21 09:30N 44°25' E 037°32'1 1.3
2017-May-21 08:59N 44°25' E 037°32'1 1.2
2017-May-21 08:30N 44°24' E 037°32'1 1.2
2017-May-21 08:00N 44°24' E 037°32'2 4.0
2017-May-21 07:27N 44°23' E 037°29'3 6.8
2017-May-21 07:00N 44°21' E 037°25'3 6.0
2017-May-21 06:29N 44°20' E 037°21'0 0.7
2017-May-21 05:58N 44°19' E 037°22'0 0.7
2017-May-21 05:26N 44°19' E 037°22'0 0.6
2017-May-21 04:56N 44°19' E 037°22'0 0.5
2017-May-21 04:30N 44°18' E 037°22'0 0.4
2017-May-21 03:59N 44°18' E 037°22'0 0.3
2017-May-21 03:29N 44°18' E 037°22'0 0.2
2017-May-21 02:56N 44°18' E 037°22'6 4.5
2017-May-21 01:39N 44°24' E 037°23'1 6.9
2017-May-21 01:28N 44°24' E 037°25'3 4.9
2017-May-21 00:57N 44°25' E 037°28'0 0.9
2017-May-21 00:30N 44°25' E 037°28'1 1.0
2017-May-20 23:59N 44°24' E 037°28'1 1.0
2017-May-20 23:30N 44°24' E 037°27'1 1.0
2017-May-20 23:00N 44°23' E 037°27'0 0.9
2017-May-20 22:29N 44°23' E 037°27'1 0.9
2017-May-20 21:53N 44°23' E 037°26'0 0.9
2017-May-20 21:30N 44°22' E 037°26'1 0.9
2017-May-20 20:40N 44°22' E 037°25'2 0.6
2017-May-20 18:16N 44°21' E 037°27'0 1.4
2017-May-20 17:59N 44°21' E 037°27'2 4.0
2017-May-20 17:30N 44°23' E 037°29'3 6.1
2017-May-20 16:58N 44°24' E 037°33'0 1.1
2017-May-20 16:30N 44°24' E 037°32'1 1.0
2017-May-20 16:00N 44°24' E 037°32'1 1.0
2017-May-20 15:29N 44°23' E 037°31'1 1.1
2017-May-20 14:59N 44°23' E 037°30'1 1.1
2017-May-20 14:29N 44°23' E 037°30'2 1.9
2017-May-20 13:29N 44°22' E 037°28'6 7.2
2017-May-20 12:41N 44°18' E 037°21'2 7.3
2017-May-20 12:27N 44°17' E 037°20'6 1.1
2017-May-20 06:46N 44°12' E 037°15'0 0.9
2017-May-20 06:22N 44°12' E 037°15'0 0.3
2017-May-20 05:49N 44°12' E 037°15'7 0.7
2017-May-19 19:48N 44°16' E 037°22'0 0.0
2017-May-19 19:18N 44°16' E 037°22'3447.3
2017-May-19 18:35N 44°36' E 038°01'3123.2
2017-May-19 17:15N 44°18' E 037°25'0 1.5
2017-May-19 16:59N 44°18' E 037°26'1 1.5
2017-May-19 16:30N 44°19' E 037°26'1 1.4
2017-May-19 16:00N 44°19' E 037°27'1 1.2
2017-May-19 15:28N 44°20' E 037°28'0 0.9
2017-May-19 15:00N 44°20' E 037°28'1 0.8
2017-May-19 13:57N 44°21' E 037°29'0 0.1
2017-May-19 13:21N 44°20' E 037°29'2 4.8
2017-May-19 12:56N 44°19' E 037°30'0 0.8
2017-May-19 12:29N 44°19' E 037°30'1 1.4
2017-May-19 11:58N 44°20' E 037°30'1 1.2
2017-May-19 11:30N 44°20' E 037°30'1 1.0
2017-May-19 10:54N 44°21' E 037°30'0 1.0
2017-May-19 10:30N 44°21' E 037°30'2640.7
2017-May-19 09:52N 44°36' E 038°01'2545.9
2017-May-19 09:19N 44°22' E 037°31'1 1.3
2017-May-19 08:49N 44°23' E 037°31'1 1.4
2017-May-19 07:59N 44°24' E 037°32'2 4.4
2017-May-19 07:30N 44°25' E 037°34'4 8.6
2017-May-19 07:00N 44°29' E 037°38'4 7.1
2017-May-19 06:30N 44°26' E 037°35'713.4
2017-May-19 06:00N 44°23' E 037°26'713.5
2017-May-19 05:28N 44°19' E 037°18'  
2017-May-15 02:57N 37°45' E 025°44'1418.5
2017-May-15 02:13N 37°32' E 025°49'418.7
2017-May-15 02:00N 37°28' E 025°52'  

Dump ship's entire track history